Detall de PIREP

Printer-friendly versionPDF version

[2013/10/20 08:05:00]
Flight IATA:CT3245
Pilot Number:012
Company ICAO:CAT
Aircraft Type:A320/E
PAX:150
Departing Airport: ESSA
Destination Airport: LEPA
Alternate Airport:LEBL
Online: VATSIM
Route:NOSLI4L/08 NOSLI/M080F360 N850 BAGOS/M080F370 UN850 NATOR UN869 MILPA UN852 VERSO UL129 LUNIK
Flight Level:F370
No Slew and time accel
No pause
Crash detect
Detect pilot in Cockpit between each 30 and 45 minutes
08:05 Zero fuel Weight: 122029 Lbs, Fuel Weight: 30515 Lbs
08:05 VATSIM:ESSA 200750Z 04003KT CAVOK M03/M04 Q1015 NOSIG
08:05 VATSIM:LEPA 200730Z 00000KT 9999 FEW018 19/18 Q1019 NOSIG
08:05 VOICE CATALONIAN
08:16 Parking Brakes off
08:20 Take-off
08:20 Take off Weight: 151728 Lbs
08:20 Wind: 354º @ 003 Knots Heading: 075º
08:20 POS N59º 39´ 46´´ E017º 58´ 25´´
08:20 Gear Up: 175 Knots
08:20 Flaps:3 at 175 Knots
08:20 Flaps:2 at 193 Knots
08:20 Flaps:1 at 200 Knots
08:21 Flaps:0 at 203 Knots
08:35 Wind:247º@064 Knots Heading: 205º Ground Speed: 401 Knots Altitude 31223 ft
08:40 TOC
08:40 Fuel Weight: 25202 Lb
08:50 Wind:245º@070 Knots Heading: 221º Ground Speed: 374 Knots Altitude 36952 ft
09:05 Wind:240º@067 Knots Heading: 219º Ground Speed: 377 Knots Altitude 36873 ft
09:20 Wind:235º@069 Knots Heading: 213º Ground Speed: 379 Knots Altitude 36856 ft
09:35 Wind:232º@070 Knots Heading: 206º Ground Speed: 386 Knots Altitude 36958 ft
09:50 Wind:233º@065 Knots Heading: 205º Ground Speed: 393 Knots Altitude 37007 ft
10:05 Wind:234º@065 Knots Heading: 193º Ground Speed: 402 Knots Altitude 37053 ft
10:20 Wind:225º@071 Knots Heading: 196º Ground Speed: 386 Knots Altitude 37142 ft
10:35 Wind:227º@074 Knots Heading: 223º Ground Speed: 377 Knots Altitude 37198 ft
10:50 Wind:225º@068 Knots Heading: 182º Ground Speed: 399 Knots Altitude 37201 ft
11:05 Wind:225º@054 Knots Heading: 204º Ground Speed: 391 Knots Altitude 37188 ft
11:20 Wind:225º@055 Knots Heading: 210º Ground Speed: 394 Knots Altitude 37171 ft
11:31 TOD
11:31 Fuel Weight: 9963 Lb
11:35 Wind:225º@042 Knots Heading: 204º Ground Speed: 363 Knots Altitude 27657 ft
11:50 Wind:234º@007 Knots Heading: 178º Ground Speed: 269 Knots Altitude 7385 ft
11:55 Flaps:1 at 199 Knots
11:56 Flaps:3 at 189 Knots
11:57 Gear Down: 178 Knots
11:58 Flaps:4 at 155 Knots
11:59 Flaps:5 at 142 Knots
12:02 TouchDown:Rate -349 ft/min Speed: 141 Knots
12:03 VATSIM:LEPA 201130Z 24004KT 200V310 9999 FEW018 SCT022 26/19 Q1019 NOSIG
12:03 Land
12:03 Wind:241º@004 Knots
12:03 Heading: 239º
12:03 Flight Duration: 03:43
12:03 Landing Weight: 129295 Lbs
12:03 POS N39º 32´ 42´´ E002º 44´ 22´´
12:07 Parking brakes on
12:07 Block to Block Duration: 03:51
12:07 Final Fuel: 6803 Lbls
12:07 Spent Fuel: 23712 Lbls
12:07 Flight Length: 1369 NM
12:07 TOD Land Length: 143 NM

Exportar CSV

Powered by Drupal - Modified by Danger4k